Time;durP1;ratioP1;P1;durP2;ratioP2;P2;SDS_P1;SDS_P2;PMS_P1;PMS_P2;Temp;Humidity;BMP_temperature;BMP_pressure;BME280_temperature;BME280_humidity;BME280_pressure;Samples;Min_cycle;Max_cycle;Signal;HPM_P1;HPM_P2
2022/12/13 00:01:32;;;;;;;32.57;18.90;;;-4.10;99.90;;;;;;5032137;28;20433;-71
2022/12/13 00:04:00;;;;;;;29.53;19.90;;;-4.10;99.90;;;;;;5030993;28;20526;-70
2022/12/13 00:06:26;;;;;;;28.80;18.50;;;-4.10;99.90;;;;;;5030731;28;20510;-70
2022/12/13 00:08:53;;;;;;;28.60;17.10;;;-4.10;99.90;;;;;;5030480;28;20520;-70
2022/12/13 00:11:18;;;;;;;22.77;17.90;;;-4.20;99.90;;;;;;5030363;28;20448;-70
2022/12/13 00:13:46;;;;;;;31.53;18.30;;;-4.30;99.90;;;;;;5038346;28;20491;-70
2022/12/13 00:16:23;;;;;;;31.70;20.17;;;-4.30;99.90;;;;;;5029405;28;20585;-70
2022/12/13 00:18:56;;;;;;;28.73;18.17;;;-4.40;99.90;;;;;;5028509;28;20433;-70
2022/12/13 00:21:26;;;;;;;27.07;17.57;;;-4.40;99.90;;;;;;5026615;28;20453;-70
2022/12/13 00:23:52;;;;;;;29.63;18.97;;;-4.50;99.90;;;;;;5031164;28;20432;-70
2022/12/13 00:26:23;;;;;;;26.43;17.80;;;-4.50;99.90;;;;;;5037452;28;20428;-70
2022/12/13 00:28:50;;;;;;;25.90;18.33;;;-4.50;99.90;;;;;;5032589;28;20837;-68
2022/12/13 00:31:17;;;;;;;23.83;17.47;;;-4.40;99.90;;;;;;5030830;28;20544;-71
2022/12/13 00:33:43;;;;;;;30.67;19.10;;;-4.40;99.90;;;;;;5028362;28;20436;-70
2022/12/13 00:36:09;;;;;;;31.73;20.57;;;-4.40;99.90;;;;;;5036243;28;20488;-70
2022/12/13 00:38:35;;;;;;;30.50;19.90;;;-4.40;99.90;;;;;;5032711;28;20520;-71
2022/12/13 00:41:17;;;;;;;33.97;19.77;;;-4.30;99.90;;;;;;5031381;28;20209;-71
2022/12/13 00:43:43;;;;;;;27.83;18.13;;;-4.30;99.90;;;;;;5030512;28;20432;-71
2022/12/13 00:46:17;;;;;;;37.73;22.13;;;-4.30;99.90;;;;;;5036319;28;20440;-71
2022/12/13 00:48:44;;;;;;;34.37;21.13;;;-4.30;99.90;;;;;;5035344;28;20425;-71
2022/12/13 00:51:11;;;;;;;30.33;19.07;;;-4.30;99.90;;;;;;5031095;28;20440;-71
2022/12/13 00:53:36;;;;;;;33.30;19.93;;;-4.30;99.90;;;;;;5030350;28;20433;-71
2022/12/13 00:56:03;;;;;;;39.50;18.80;;;-4.30;99.90;;;;;;5028162;28;20428;-71
2022/12/13 00:58:29;;;;;;;30.17;20.80;;;-4.30;99.90;;;;;;5029064;28;20468;-71
2022/12/13 01:01:02;;;;;;;32.87;20.17;;;-4.30;99.90;;;;;;5029037;28;20464;-71
2022/12/13 01:03:28;;;;;;;27.00;19.20;;;-4.40;99.90;;;;;;5025767;28;20182;-71
2022/12/13 01:05:53;;;;;;;31.77;18.57;;;-4.40;99.90;;;;;;5029864;28;20494;-71
2022/12/13 01:08:19;;;;;;;24.70;16.07;;;-4.40;99.90;;;;;;5031452;28;20228;-71
2022/12/13 01:10:45;;;;;;;35.57;20.20;;;-4.40;99.90;;;;;;5029680;28;20209;-71
2022/12/13 01:13:12;;;;;;;27.97;17.23;;;-4.50;99.90;;;;;;5029064;28;20725;-69
2022/12/13 01:15:42;;;;;;;29.40;18.80;;;-4.60;99.90;;;;;;5028710;28;20495;-70
2022/12/13 01:18:09;;;;;;;27.20;18.00;;;-4.60;99.90;;;;;;5034163;28;20946;-70
2022/12/13 01:20:34;;;;;;;29.10;19.23;;;-4.60;99.90;;;;;;5031648;28;20547;-70
2022/12/13 01:23:00;;;;;;;31.63;19.63;;;-4.70;99.90;;;;;;5033024;28;20885;-70
2022/12/13 01:25:25;;;;;;;34.40;19.63;;;-4.70;99.90;;;;;;5033303;28;20260;-70
2022/12/13 01:27:51;;;;;;;35.33;20.10;;;-4.70;99.90;;;;;;5031779;28;20217;-70
2022/12/13 01:30:17;;;;;;;25.60;18.00;;;-4.70;99.90;;;;;;5032198;28;20229;-70
2022/12/13 01:32:42;;;;;;;33.23;19.27;;;-4.70;99.90;;;;;;5032023;28;20217;-70
2022/12/13 01:35:08;;;;;;;33.33;18.47;;;-4.80;99.90;;;;;;5033600;28;20185;-69
2022/12/13 01:37:35;;;;;;;32.80;19.73;;;-4.80;99.90;;;;;;5032066;28;20186;-70
2022/12/13 01:40:02;;;;;;;26.53;18.30;;;-4.80;99.90;;;;;;5031351;28;20194;-70
2022/12/13 01:42:28;;;;;;;35.67;20.70;;;-4.80;99.90;;;;;;5030207;28;20810;-70
2022/12/13 01:45:27;;;;;;;27.77;19.60;;;-4.80;99.90;;;;;;5030874;28;20464;-70
2022/12/13 01:47:58;;;;;;;33.30;19.63;;;-4.80;99.90;;;;;;4998068;28;20444;-71
2022/12/13 01:50:29;;;;;;;38.10;19.47;;;-4.90;99.90;;;;;;5031375;28;20484;-70
2022/12/13 01:52:56;;;;;;;30.10;20.10;;;-4.90;99.90;;;;;;5031100;28;20440;-70
2022/12/13 01:55:24;;;;;;;34.47;18.07;;;-4.90;99.90;;;;;;5032254;28;20882;-70
2022/12/13 01:57:52;;;;;;;30.33;20.40;;;-4.80;99.90;;;;;;5044483;28;20436;-70
2022/12/13 02:00:18;;;;;;;26.93;20.57;;;-4.80;99.90;;;;;;5029017;28;20530;-70
2022/12/13 02:02:46;;;;;;;29.00;18.40;;;-4.80;99.90;;;;;;5032504;28;20443;-70
2022/12/13 02:05:20;;;;;;;24.83;19.10;;;-4.90;99.90;;;;;;5031907;28;20548;-70
2022/12/13 02:07:46;;;;;;;27.83;18.83;;;-4.90;99.90;;;;;;5032326;28;20792;-70
2022/12/13 02:10:11;;;;;;;28.50;17.93;;;-4.90;99.90;;;;;;5032375;28;20483;-70
2022/12/13 02:12:40;;;;;;;30.83;20.43;;;-4.90;99.90;;;;;;5028928;28;20948;-70
2022/12/13 02:15:13;;;;;;;29.00;18.50;;;-5.00;99.90;;;;;;5032175;28;20186;-70
2022/12/13 02:18:08;;;;;;;29.67;18.97;;;-5.00;99.90;;;;;;5030827;28;20441;-70
2022/12/13 02:20:56;;;;;;;29.80;18.80;;;-5.10;99.90;;;;;;5033585;28;20514;-70
2022/12/13 02:23:39;;;;;;;30.97;20.43;;;-5.20;99.90;;;;;;5027874;28;20513;-70
2022/12/13 02:26:36;;;;;;;25.20;17.43;;;-5.20;99.90;;;;;;5031211;28;20973;-70
2022/12/13 02:29:13;;;;;;;32.27;19.10;;;-5.20;99.90;;;;;;5025684;28;20465;-70
2022/12/13 02:31:54;;;;;;;27.43;19.00;;;-5.20;99.90;;;;;;5025019;28;20424;-70
2022/12/13 02:34:23;;;;;;;30.50;18.63;;;-5.20;99.90;;;;;;5030252;28;20439;-70
2022/12/13 02:37:07;;;;;;;28.70;19.53;;;-5.20;99.90;;;;;;5038125;28;20445;-70
2022/12/13 02:39:42;;;;;;;29.50;18.80;;;-5.20;99.90;;;;;;5036380;28;20456;-70
2022/12/13 02:42:22;;;;;;;27.57;18.53;;;-5.20;99.90;;;;;;5031476;28;20443;-70
2022/12/13 02:45:00;;;;;;;30.07;19.10;;;-5.20;99.90;;;;;;5032945;28;21065;-70
2022/12/13 02:47:28;;;;;;;29.57;20.30;;;-5.20;99.90;;;;;;5024723;28;20505;-70
2022/12/13 02:49:58;;;;;;;32.97;20.40;;;-5.20;99.90;;;;;;5034418;28;20490;-70
2022/12/13 02:52:29;;;;;;;32.50;18.30;;;-5.20;99.90;;;;;;5028721;28;20440;-70
2022/12/13 02:54:56;;;;;;;23.67;16.07;;;-5.30;99.90;;;;;;5032088;28;20467;-70
2022/12/13 02:57:30;;;;;;;27.87;17.93;;;-5.30;99.90;;;;;;5025738;28;20871;-70
2022/12/13 03:00:00;;;;;;;25.87;16.27;;;-5.30;99.90;;;;;;5030924;28;20457;-70
2022/12/13 03:02:53;;;;;;;24.50;17.30;;;-5.30;99.90;;;;;;5029909;28;20803;-70
2022/12/13 03:08:54;;;;;;;24.57;16.50;;;-5.30;99.90;;;;;;5030600;28;20798;-70
2022/12/13 03:11:21;;;;;;;25.80;17.70;;;-5.20;99.90;;;;;;5031033;28;20479;-70
2022/12/13 03:13:57;;;;;;;27.17;16.87;;;-5.30;99.90;;;;;;5030965;28;20861;-70
2022/12/13 03:16:33;;;;;;;27.40;17.90;;;-5.30;99.90;;;;;;5027603;28;22175;-70
2022/12/13 03:19:01;;;;;;;27.93;16.93;;;-5.30;99.90;;;;;;5031442;28;20432;-70
2022/12/13 03:21:27;;;;;;;25.93;18.23;;;-5.40;99.90;;;;;;5029956;28;20453;-70
2022/12/13 03:23:53;;;;;;;26.30;16.30;;;-5.50;99.90;;;;;;5027440;28;21013;-70
2022/12/13 03:26:26;;;;;;;25.57;18.20;;;-5.60;99.90;;;;;;5028014;28;20446;-70
2022/12/13 03:28:52;;;;;;;24.70;16.90;;;-5.70;99.90;;;;;;5025725;28;20236;-70
2022/12/13 03:31:18;;;;;;;29.63;19.47;;;-5.70;99.90;;;;;;5031290;28;20459;-70
2022/12/13 03:33:44;;;;;;;24.47;16.03;;;-5.70;99.90;;;;;;5041816;28;20514;-70
2022/12/13 03:36:11;;;;;;;26.60;18.07;;;-5.70;99.90;;;;;;5039698;28;20447;-70
2022/12/13 03:38:38;;;;;;;26.20;17.70;;;-5.70;99.90;;;;;;5028560;28;21551;-70
2022/12/13 03:41:11;;;;;;;24.80;17.90;;;-5.70;99.90;;;;;;5035584;28;20464;-69
2022/12/13 03:43:38;;;;;;;29.50;17.57;;;-5.70;99.90;;;;;;5030467;28;20476;-70
2022/12/13 03:46:04;;;;;;;27.87;18.07;;;-5.70;99.90;;;;;;5030888;28;20463;-70
2022/12/13 03:48:30;;;;;;;33.60;19.53;;;-5.70;99.90;;;;;;5028312;28;20441;-70
2022/12/13 03:50:56;;;;;;;26.53;17.50;;;-5.70;99.90;;;;;;5030467;28;20483;-70
2022/12/13 03:53:23;;;;;;;28.97;20.63;;;-5.60;99.90;;;;;;5030895;28;20728;-70
2022/12/13 03:55:48;;;;;;;25.33;16.90;;;-5.60;99.90;;;;;;5031768;28;20436;-70
2022/12/13 03:58:14;;;;;;;26.40;16.87;;;-5.60;99.90;;;;;;5030752;28;22110;-70
2022/12/13 04:00:39;;;;;;;26.10;16.80;;;-5.60;99.90;;;;;;5030048;28;20581;-70
2022/12/13 04:03:05;;;;;;;28.17;15.63;;;-5.60;99.90;;;;;;5030048;28;20185;-70
2022/12/13 04:05:30;;;;;;;23.23;16.90;;;-5.70;99.90;;;;;;5029965;28;20210;-70
2022/12/13 04:07:56;;;;;;;23.87;16.50;;;-5.70;99.90;;;;;;5030300;28;20552;-69
2022/12/13 04:10:22;;;;;;;30.67;17.77;;;-5.70;99.90;;;;;;5027455;28;20637;-69
2022/12/13 04:15:32;;;;;;;25.80;15.33;;;-5.80;99.90;;;;;;5028501;28;20439;-70
2022/12/13 04:17:57;;;;;;;28.27;17.53;;;-5.80;99.90;;;;;;5029122;28;20440;-70
2022/12/13 04:20:23;;;;;;;31.50;17.40;;;-5.80;99.90;;;;;;5028169;28;20643;-69
2022/12/13 04:22:49;;;;;;;25.27;16.57;;;-5.80;99.90;;;;;;5029982;28;20277;-69
2022/12/13 04:25:14;;;;;;;29.37;16.33;;;-5.80;99.90;;;;;;5029022;28;20684;-69
2022/12/13 04:27:40;;;;;;;25.33;16.33;;;-5.80;99.90;;;;;;5026947;28;20198;-70
2022/12/13 04:30:06;;;;;;;26.90;16.73;;;-5.80;99.90;;;;;;5028745;28;20197;-70
2022/12/13 04:32:32;;;;;;;28.57;17.10;;;-5.80;99.90;;;;;;5030732;28;20557;-70
2022/12/13 04:34:57;;;;;;;23.77;16.10;;;-5.90;99.90;;;;;;5030697;28;20439;-70
2022/12/13 04:37:23;;;;;;;28.90;17.00;;;-5.90;99.90;;;;;;5030034;28;20220;-70
2022/12/13 04:39:48;;;;;;;24.87;14.73;;;-5.80;99.90;;;;;;5040973;28;20720;-70
2022/12/13 04:42:14;;;;;;;24.10;15.80;;;-5.80;99.90;;;;;;5048525;28;20205;-70
2022/12/13 04:44:40;;;;;;;29.80;16.57;;;-5.70;99.90;;;;;;5032863;28;20206;-70
2022/12/13 04:47:05;;;;;;;26.87;15.23;;;-5.80;99.90;;;;;;5043212;28;20878;-70
2022/12/13 04:49:32;;;;;;;22.97;16.80;;;-5.80;99.90;;;;;;5035295;28;20201;-70
2022/12/13 04:51:58;;;;;;;26.70;16.40;;;-5.70;99.90;;;;;;5031212;28;20194;-70
2022/12/13 04:54:23;;;;;;;25.80;14.80;;;-5.70;99.90;;;;;;5030427;28;20595;-70
2022/12/13 04:56:49;;;;;;;22.57;14.47;;;-5.70;99.90;;;;;;5023951;28;20619;-70
2022/12/13 04:59:15;;;;;;;22.20;14.07;;;-5.70;99.90;;;;;;5031422;28;20265;-70
2022/12/13 05:01:40;;;;;;;21.53;14.63;;;-5.70;99.90;;;;;;5033049;28;20182;-70
2022/12/13 05:04:06;;;;;;;26.37;15.00;;;-5.70;99.90;;;;;;5036552;28;20517;-70
2022/12/13 05:06:32;;;;;;;24.10;15.30;;;-5.70;99.90;;;;;;5044050;28;20777;-70
2022/12/13 05:08:57;;;;;;;23.67;14.93;;;-5.70;99.90;;;;;;5043891;28;20186;-70
2022/12/13 05:11:23;;;;;;;22.37;15.40;;;-5.70;99.90;;;;;;5035730;28;20248;-70
2022/12/13 05:13:49;;;;;;;24.33;14.43;;;-5.70;99.90;;;;;;5041893;28;20262;-70
2022/12/13 05:16:14;;;;;;;20.90;14.33;;;-5.80;99.90;;;;;;5038519;28;20227;-70
2022/12/13 05:18:40;;;;;;;27.23;16.10;;;-5.80;99.90;;;;;;5032718;28;20813;-70
2022/12/13 05:21:08;;;;;;;21.90;13.80;;;-5.80;99.90;;;;;;5036418;28;20213;-70
2022/12/13 05:23:34;;;;;;;18.73;13.60;;;-5.80;99.90;;;;;;5037819;28;20190;-70
2022/12/13 05:26:00;;;;;;;20.93;14.03;;;-5.90;99.90;;;;;;5038773;28;20467;-70
2022/12/13 05:28:27;;;;;;;20.37;13.83;;;-5.90;99.90;;;;;;5040785;28;20489;-70
2022/12/13 05:30:57;;;;;;;19.90;13.03;;;-5.90;99.90;;;;;;5035586;28;20468;-70
2022/12/13 05:33:24;;;;;;;23.30;13.53;;;-5.90;99.90;;;;;;5040685;28;21040;-70
2022/12/13 05:35:50;;;;;;;27.27;13.00;;;-6.00;99.90;;;;;;5042420;28;20538;-71
2022/12/13 05:38:16;;;;;;;18.73;12.70;;;-6.00;99.90;;;;;;5037997;28;20532;-70
2022/12/13 05:40:41;;;;;;;23.03;14.17;;;-6.00;99.90;;;;;;5032633;28;20210;-71
2022/12/13 05:43:10;;;;;;;24.13;14.00;;;-6.00;99.90;;;;;;5045848;28;20600;-70
2022/12/13 05:45:36;;;;;;;23.17;13.60;;;-6.00;99.90;;;;;;5030618;28;20206;-70
2022/12/13 05:48:01;;;;;;;22.40;13.00;;;-6.00;99.90;;;;;;5038271;28;20497;-70
2022/12/13 05:50:27;;;;;;;20.40;11.30;;;-6.00;99.90;;;;;;5045632;28;20977;-70
2022/12/13 05:52:52;;;;;;;19.40;13.23;;;-6.00;99.90;;;;;;5032061;28;20552;-70
2022/12/13 05:55:18;;;;;;;22.90;12.17;;;-6.00;99.90;;;;;;5032005;28;20185;-70
2022/12/13 05:57:44;;;;;;;29.03;15.27;;;-6.00;99.90;;;;;;5030673;28;20190;-70
2022/12/13 06:00:10;;;;;;;23.37;14.70;;;-6.10;99.90;;;;;;5030585;28;20466;-70
2022/12/13 06:02:37;;;;;;;23.17;14.43;;;-6.00;99.90;;;;;;5032269;28;20586;-70
2022/12/13 06:05:04;;;;;;;19.47;12.17;;;-6.00;99.90;;;;;;5034560;28;20468;-70
2022/12/13 06:07:30;;;;;;;21.10;13.00;;;-6.10;99.90;;;;;;5033248;28;20429;-70
2022/12/13 06:09:55;;;;;;;18.83;14.07;;;-6.10;99.90;;;;;;5032164;28;20551;-70
2022/12/13 06:12:21;;;;;;;25.87;13.53;;;-6.10;99.90;;;;;;5031838;28;20186;-70
2022/12/13 06:14:46;;;;;;;24.93;13.87;;;-6.00;99.90;;;;;;5034981;28;20186;-70
2022/12/13 06:17:12;;;;;;;24.83;13.40;;;-6.00;99.90;;;;;;5034239;28;20228;-70
2022/12/13 06:19:37;;;;;;;20.47;15.37;;;-6.00;99.90;;;;;;5030852;28;22047;-69
2022/12/13 06:22:03;;;;;;;24.33;15.10;;;-6.10;99.90;;;;;;5028586;28;20269;-69
2022/12/13 06:24:28;;;;;;;21.30;14.40;;;-6.00;99.90;;;;;;5028466;28;20288;-72
2022/12/13 06:26:54;;;;;;;19.87;14.30;;;-6.00;99.90;;;;;;5032879;28;20186;-71
2022/12/13 06:29:21;;;;;;;22.50;13.90;;;-6.10;99.90;;;;;;5039284;28;20235;-73
2022/12/13 06:31:46;;;;;;;21.00;13.90;;;-6.10;99.90;;;;;;5036406;28;20186;-73
2022/12/13 06:34:12;;;;;;;24.67;15.67;;;-6.10;99.90;;;;;;5042117;28;20588;-72
2022/12/13 06:36:37;;;;;;;19.10;14.30;;;-6.20;99.90;;;;;;5040598;28;20178;-74
2022/12/13 06:39:05;;;;;;;24.90;13.90;;;-6.20;99.90;;;;;;5042554;28;20224;-69
2022/12/13 06:41:31;;;;;;;27.47;15.50;;;-6.20;99.90;;;;;;5033400;28;20237;-70
2022/12/13 06:43:57;;;;;;;25.23;14.83;;;-6.20;99.90;;;;;;5037704;28;21134;-69
2022/12/13 06:46:22;;;;;;;23.17;14.03;;;-6.20;99.90;;;;;;5031704;28;20452;-69
2022/12/13 06:48:48;;;;;;;22.87;13.80;;;-6.10;99.90;;;;;;5038594;28;20644;-70
2022/12/13 06:51:14;;;;;;;31.20;14.67;;;-6.10;99.90;;;;;;5033741;28;20228;-70
2022/12/13 06:53:40;;;;;;;22.73;14.33;;;-6.10;99.90;;;;;;5040383;28;20543;-70
2022/12/13 06:56:11;;;;;;;21.70;13.90;;;-6.10;99.90;;;;;;5046291;28;20174;-70
2022/12/13 06:58:38;;;;;;;25.93;14.83;;;-6.10;99.90;;;;;;5053327;28;20420;-70
2022/12/13 07:01:16;;;;;;;25.57;15.10;;;-6.10;99.90;;;;;;5053355;28;21012;-70
2022/12/13 07:03:42;;;;;;;23.20;14.40;;;-6.10;99.90;;;;;;5053412;28;20427;-70
2022/12/13 07:06:16;;;;;;;22.43;15.47;;;-6.10;99.90;;;;;;5053261;28;20491;-70
2022/12/13 07:08:46;;;;;;;22.80;13.10;;;-6.10;99.90;;;;;;5052967;28;20420;-70
2022/12/13 07:11:16;;;;;;;24.20;14.47;;;-6.10;99.90;;;;;;5053271;28;20444;-70
2022/12/13 07:13:43;;;;;;;20.20;13.83;;;-6.10;99.90;;;;;;5052779;28;20416;-70
2022/12/13 07:16:09;;;;;;;27.73;15.57;;;-6.10;99.90;;;;;;5053200;28;20949;-69
2022/12/13 07:18:35;;;;;;;23.27;14.40;;;-6.10;99.90;;;;;;5052897;28;20807;-70
2022/12/13 07:21:04;;;;;;;21.40;14.13;;;-6.10;99.90;;;;;;5053056;28;20447;-71
2022/12/13 07:23:29;;;;;;;23.83;15.03;;;-6.00;99.90;;;;;;5053130;28;20505;-71
2022/12/13 07:25:55;;;;;;;25.50;14.70;;;-6.00;99.90;;;;;;5053014;28;20508;-71
2022/12/13 07:28:21;;;;;;;24.37;13.47;;;-6.10;99.90;;;;;;5052816;28;20173;-71
2022/12/13 07:30:46;;;;;;;23.20;13.63;;;-6.00;99.90;;;;;;5052770;28;20189;-71
2022/12/13 07:33:12;;;;;;;24.17;14.20;;;-5.90;99.90;;;;;;5034808;28;20170;-71
2022/12/13 07:35:38;;;;;;;23.10;14.70;;;-5.80;99.90;;;;;;5033024;28;20185;-71
2022/12/13 07:38:05;;;;;;;19.53;13.90;;;-5.80;99.90;;;;;;5008107;28;20954;-70
2022/12/13 07:40:33;;;;;;;23.37;15.30;;;-5.80;99.90;;;;;;5015012;28;20202;-69
2022/12/13 07:42:59;;;;;;;26.07;15.07;;;-5.70;99.90;;;;;;5032862;28;20448;-69
2022/12/13 07:45:25;;;;;;;24.40;15.60;;;-5.50;99.90;;;;;;5032683;28;20500;-70
2022/12/13 07:47:50;;;;;;;24.77;16.30;;;-5.50;99.90;;;;;;5029179;28;20178;-69
2022/12/13 07:50:16;;;;;;;25.03;16.13;;;-5.30;99.90;;;;;;5031102;28;20201;-70
2022/12/13 07:52:41;;;;;;;26.93;16.90;;;-5.20;99.90;;;;;;5024258;28;20186;-70
2022/12/13 07:55:07;;;;;;;26.20;16.90;;;-5.00;99.90;;;;;;5028996;28;20202;-70
2022/12/13 07:57:33;;;;;;;32.13;19.10;;;-4.80;99.90;;;;;;5025612;28;20182;-69
2022/12/13 07:59:59;;;;;;;25.67;17.00;;;-4.60;99.90;;;;;;5031568;28;20201;-69
2022/12/13 08:02:24;;;;;;;22.30;15.53;;;-4.20;99.90;;;;;;5014935;28;20179;-70
2022/12/13 08:04:50;;;;;;;31.00;16.70;;;-3.80;99.90;;;;;;5012350;28;20660;-71
2022/12/13 08:07:16;;;;;;;25.20;14.17;;;-3.60;99.90;;;;;;5022323;28;20179;-69
2022/12/13 08:09:41;;;;;;;29.63;16.37;;;-3.40;99.90;;;;;;5031699;28;20204;-69
2022/12/13 08:12:07;;;;;;;26.50;15.83;;;-2.90;99.90;;;;;;5025076;28;20252;-70
2022/12/13 08:14:33;;;;;;;24.43;14.43;;;-2.10;99.90;;;;;;5013552;28;20269;-71
2022/12/13 08:16:59;;;;;;;26.73;17.53;;;-1.30;99.90;;;;;;5019545;28;21365;-70
2022/12/13 08:19:24;;;;;;;26.50;15.30;;;-0.90;99.90;;;;;;5022852;28;20436;-69
2022/12/13 08:21:51;;;;;;;21.43;15.53;;;-0.60;99.90;;;;;;5022713;28;20229;-69
2022/12/13 08:24:20;;;;;;;24.60;15.60;;;-0.60;99.90;;;;;;5022382;28;20189;-70
2022/12/13 08:26:45;;;;;;;22.47;14.10;;;-0.50;99.90;;;;;;5019584;28;20424;-70
2022/12/13 08:29:11;;;;;;;21.80;15.30;;;-0.30;99.90;;;;;;5023192;28;20410;-70
2022/12/13 08:31:38;;;;;;;17.63;13.23;;;-0.20;99.90;;;;;;5022119;28;20548;-70
2022/12/13 08:34:03;;;;;;;19.70;15.63;;;-0.10;99.90;;;;;;5021770;28;20440;-70
2022/12/13 08:36:29;;;;;;;21.80;15.70;;;0.00;99.90;;;;;;5022755;28;20429;-70
2022/12/13 08:38:56;;;;;;;23.73;16.17;;;0.40;99.90;;;;;;5021283;28;20521;-70
2022/12/13 08:41:22;;;;;;;26.43;17.00;;;0.70;99.90;;;;;;5021348;28;20191;-71
2022/12/13 08:43:47;;;;;;;25.97;16.57;;;0.60;99.90;;;;;;5023967;28;20421;-70
2022/12/13 08:46:13;;;;;;;22.60;17.40;;;0.90;99.90;;;;;;5020827;28;21172;-70
2022/12/13 08:48:39;;;;;;;25.83;17.67;;;1.40;99.90;;;;;;5022406;28;20166;-70
2022/12/13 08:51:07;;;;;;;26.77;16.57;;;2.40;99.90;;;;;;5021323;28;20198;-70
2022/12/13 08:53:32;;;;;;;22.03;17.30;;;3.60;99.90;;;;;;5020845;28;20174;-70
2022/12/13 08:56:03;;;;;;;27.23;18.43;;;4.30;99.90;;;;;;5021672;28;21127;-70
2022/12/13 08:58:30;;;;;;;21.60;15.77;;;4.80;99.90;;;;;;5021514;28;20178;-70
2022/12/13 09:00:56;;;;;;;25.80;20.47;;;5.00;99.70;;;;;;5023298;28;20459;-70
2022/12/13 09:03:21;;;;;;;26.27;18.77;;;5.00;98.60;;;;;;5020426;28;21115;-70
2022/12/13 09:05:47;;;;;;;26.40;19.67;;;4.80;97.50;;;;;;5021586;28;20978;-70
2022/12/13 09:08:12;;;;;;;20.93;17.27;;;5.20;97.70;;;;;;5022600;28;20253;-71
2022/12/13 09:10:38;;;;;;;34.73;26.03;;;6.20;95.90;;;;;;5020202;28;20207;-71
2022/12/13 09:13:03;;;;;;;29.13;21.53;;;7.40;93.80;;;;;;5015196;28;20671;-70
2022/12/13 09:15:30;;;;;;;26.80;20.60;;;8.40;88.90;;;;;;5021754;28;20233;-69
2022/12/13 09:17:56;;;;;;;25.30;21.07;;;8.40;87.10;;;;;;5028184;28;20305;-70
2022/12/13 09:20:22;;;;;;;24.93;20.43;;;8.20;87.10;;;;;;5030975;28;20965;-69
2022/12/13 09:22:48;;;;;;;23.27;18.40;;;8.20;82.80;;;;;;5017875;28;20661;-69
2022/12/13 09:25:14;;;;;;;37.60;24.40;;;8.40;81.70;;;;;;5022172;28;20455;-70
2022/12/13 09:27:42;;;;;;;33.40;24.37;;;7.60;81.30;;;;;;5020992;28;20182;-70
2022/12/13 09:30:12;;;;;;;29.97;22.40;;;7.10;84.80;;;;;;5021937;28;20194;-70
2022/12/13 09:32:48;;;;;;;26.70;21.50;;;7.00;85.30;;;;;;5021312;28;20859;-70
2022/12/13 09:35:13;;;;;;;24.47;18.63;;;7.00;86.70;;;;;;5022408;28;20429;-70
2022/12/13 09:37:39;;;;;;;26.10;19.07;;;7.90;84.20;;;;;;5024050;28;20482;-70
2022/12/13 09:40:06;;;;;;;27.30;17.17;;;8.70;79.00;;;;;;5026172;28;20671;-70
2022/12/13 09:42:33;;;;;;;23.97;17.17;;;9.20;75.50;;;;;;5023364;28;20262;-70
2022/12/13 09:45:02;;;;;;;20.60;17.67;;;10.30;71.60;;;;;;5024793;28;20986;-71
2022/12/13 09:47:30;;;;;;;19.60;17.60;;;10.50;67.80;;;;;;5025605;28;20428;-69
2022/12/13 09:49:58;;;;;;;22.47;16.97;;;10.60;64.80;;;;;;5023097;28;20881;-70
2022/12/13 09:52:25;;;;;;;22.37;16.27;;;9.90;61.80;;;;;;5027417;28;20413;-70
2022/12/13 09:54:56;;;;;;;20.47;16.10;;;9.70;65.30;;;;;;5024480;28;20516;-70
2022/12/13 09:57:26;;;;;;;22.50;15.37;;;8.40;65.20;;;;;;5025251;28;20429;-69
2022/12/13 09:59:52;;;;;;;20.70;18.00;;;7.70;67.30;;;;;;5023796;28;20978;-69
2022/12/13 10:02:29;;;;;;;17.60;14.20;;;7.10;68.90;;;;;;5022773;28;20524;-69
2022/12/13 10:05:31;;;;;;;19.63;14.87;;;6.30;72.10;;;;;;5024536;28;20456;-70
2022/12/13 10:08:03;;;;;;;18.77;14.33;;;6.10;73.70;;;;;;5024226;28;20428;-70
2022/12/13 10:10:29;;;;;;;18.37;14.07;;;6.50;73.80;;;;;;5024901;28;20458;-70
2022/12/13 10:13:04;;;;;;;13.10;11.77;;;5.90;73.10;;;;;;5024728;28;20420;-70
2022/12/13 10:15:31;;;;;;;18.03;12.77;;;5.00;75.40;;;;;;5023765;28;20177;-70
2022/12/13 10:17:58;;;;;;;18.20;13.03;;;5.30;76.10;;;;;;5020580;28;20421;-71
2022/12/13 10:20:27;;;;;;;15.83;12.60;;;5.30;77.00;;;;;;5013041;28;20978;-72
2022/12/13 10:22:53;;;;;;;16.57;12.90;;;5.30;78.70;;;;;;5021965;28;20429;-69
2022/12/13 10:25:50;;;;;;;15.20;12.00;;;5.50;76.50;;;;;;5034158;28;20954;-69
2022/12/13 10:28:17;;;;;;;18.50;14.20;;;5.20;77.90;;;;;;5029872;28;20196;-72
2022/12/13 10:30:44;;;;;;;14.43;12.57;;;4.90;78.00;;;;;;5029968;28;20460;-69
2022/12/13 10:33:26;;;;;;;15.00;11.40;;;4.70;78.80;;;;;;5014306;28;20521;-74
2022/12/13 10:36:01;;;;;;;15.77;11.60;;;4.60;80.00;;;;;;5033708;28;20428;-74
2022/12/13 10:38:30;;;;;;;13.87;10.73;;;4.30;81.90;;;;;;5030545;28;20968;-68
2022/12/13 10:40:56;;;;;;;14.13;10.93;;;4.60;80.50;;;;;;5027864;28;20527;-69
2022/12/13 10:43:25;;;;;;;15.27;12.23;;;4.80;79.50;;;;;;5014127;28;20434;-68
2022/12/13 10:45:59;;;;;;;15.13;10.33;;;4.40;79.60;;;;;;5013581;28;20202;-67
2022/12/13 10:48:47;;;;;;;15.10;11.13;;;4.10;82.10;;;;;;5027672;28;20417;-70
2022/12/13 10:51:16;;;;;;;12.87;10.40;;;4.40;79.20;;;;;;5033311;28;20437;-68
2022/12/13 10:53:48;;;;;;;20.57;10.97;;;3.70;82.70;;;;;;5013928;28;20421;-68
2022/12/13 10:56:16;;;;;;;17.80;9.67;;;3.40;85.20;;;;;;5022779;28;20429;-68
2022/12/13 10:58:45;;;;;;;13.87;9.73;;;3.80;83.50;;;;;;5024423;28;20441;-67
2022/12/13 11:01:31;;;;;;;13.63;9.93;;;3.70;82.20;;;;;;5013770;28;20449;-67
2022/12/13 11:04:00;;;;;;;16.33;10.37;;;2.90;83.70;;;;;;5012987;28;20477;-69
2022/12/13 11:06:45;;;;;;;16.53;10.10;;;2.50;89.20;;;;;;5027751;28;20929;-69
2022/12/13 11:09:32;;;;;;;14.10;9.90;;;2.80;89.50;;;;;;5032426;28;20441;-67
2022/12/13 11:12:01;;;;;;;14.10;10.60;;;3.90;84.30;;;;;;5032737;28;20464;-67
2022/12/13 11:14:31;;;;;;;22.57;10.93;;;4.70;82.20;;;;;;5033385;28;20413;-68
2022/12/13 11:16:59;;;;;;;15.43;8.87;;;4.80;78.80;;;;;;5029714;28;20443;-67
2022/12/13 11:19:39;;;;;;;15.90;10.30;;;4.00;81.50;;;;;;5032387;28;20568;-67
2022/12/13 11:22:07;;;;;;;21.40;10.93;;;4.10;81.50;;;;;;5032802;28;20439;-67
2022/12/13 11:24:36;;;;;;;29.77;10.77;;;3.80;82.80;;;;;;5013570;28;20466;-67
2022/12/13 11:27:26;;;;;;;19.97;11.13;;;3.90;83.90;;;;;;5015848;28;20463;-67
2022/12/13 11:30:08;;;;;;;15.30;11.27;;;3.80;85.70;;;;;;5032253;28;20440;-67
2022/12/13 11:32:40;;;;;;;14.23;9.90;;;3.90;85.40;;;;;;5032927;28;20973;-67
2022/12/13 11:35:34;;;;;;;17.13;9.37;;;4.30;83.10;;;;;;5031758;28;20849;-66
2022/12/13 11:38:15;;;;;;;13.03;9.00;;;5.10;79.50;;;;;;5029522;28;20516;-67
2022/12/13 11:40:45;;;;;;;11.67;8.40;;;4.70;77.50;;;;;;5026367;28;21026;-66
2022/12/13 11:43:28;;;;;;;14.17;8.07;;;4.00;78.80;;;;;;5013058;28;20422;-67
2022/12/13 11:45:58;;;;;;;13.57;9.83;;;4.10;79.60;;;;;;5013024;28;21231;-66
2022/12/13 11:48:36;;;;;;;16.17;10.57;;;4.00;81.30;;;;;;5024031;28;20420;-66
2022/12/13 11:51:06;;;;;;;13.80;8.83;;;4.60;82.20;;;;;;5032718;28;20432;-66
2022/12/13 11:53:53;;;;;;;16.60;9.70;;;5.00;79.60;;;;;;5032186;28;21016;-67
2022/12/13 11:56:24;;;;;;;12.50;9.03;;;5.00;77.10;;;;;;5032067;28;20431;-67
2022/12/13 11:59:47;;;;;;;16.00;10.43;;;5.00;76.90;;;;;;5030157;28;20775;-67
2022/12/13 12:02:34;;;;;;;12.00;9.27;;;4.50;78.20;;;;;;4970935;28;20567;-67
2022/12/13 12:05:23;;;;;;;10.93;7.47;;;4.10;78.90;;;;;;5012274;28;20465;-67
2022/12/13 12:07:56;;;;;;;12.77;9.67;;;4.20;77.20;;;;;;5028606;28;20435;-67
2022/12/13 12:10:37;;;;;;;13.30;8.93;;;3.80;79.10;;;;;;5032277;28;21152;-68
2022/12/13 12:13:12;;;;;;;11.43;9.07;;;3.60;80.40;;;;;;5024017;28;20476;-68
2022/12/13 12:15:45;;;;;;;15.33;9.67;;;3.50;81.50;;;;;;5012206;28;20409;-68
2022/12/13 12:18:14;;;;;;;11.30;7.67;;;3.90;81.30;;;;;;5018279;28;20828;-67
2022/12/13 12:20:46;;;;;;;14.20;9.63;;;3.60;79.00;;;;;;5032064;28;20443;-66
2022/12/13 12:23:23;;;;;;;13.80;9.27;;;3.40;80.70;;;;;;5031114;28;20428;-67
2022/12/13 12:26:00;;;;;;;10.87;9.13;;;3.50;80.20;;;;;;5032086;28;20460;-69
2022/12/13 12:29:03;;;;;;;13.87;9.47;;;3.40;80.00;;;;;;5028395;28;20443;-68
2022/12/13 12:31:50;;;;;;;12.63;8.77;;;3.50;79.30;;;;;;5017905;28;20437;-68
2022/12/13 12:34:30;;;;;;;12.33;8.40;;;3.50;79.20;;;;;;5012363;28;20448;-67
2022/12/13 12:37:22;;;;;;;10.83;7.40;;;3.80;78.80;;;;;;5022879;28;20416;-68
2022/12/13 12:40:36;;;;;;;10.37;8.10;;;3.80;78.20;;;;;;5031112;28;20439;-68
2022/12/13 12:43:14;;;;;;;13.00;8.23;;;4.20;77.20;;;;;;5025255;28;20461;-67
2022/12/13 12:45:51;;;;;;;12.20;8.87;;;4.40;77.60;;;;;;5030199;28;20859;-67
2022/12/13 12:48:17;;;;;;;9.43;7.60;;;4.30;76.40;;;;;;5026742;28;20420;-67
2022/12/13 12:50:51;;;;;;;12.60;7.93;;;3.50;76.50;;;;;;5014227;28;21271;-67